createdAt,value
2022-10-20T00:01:44.312Z,89.56
2022-10-20T00:04:10.676Z,89.44
2022-10-20T00:06:37.003Z,89.60
2022-10-20T00:09:04.428Z,89.64
2022-10-20T00:11:31.851Z,89.58
2022-10-20T00:14:00.120Z,89.03
2022-10-20T00:16:29.073Z,89.53
2022-10-20T00:18:56.881Z,89.32
2022-10-20T00:21:25.735Z,89.64
2022-10-20T00:23:52.483Z,89.96
2022-10-20T00:26:22.335Z,90.40
2022-10-20T00:28:49.946Z,90.01
2022-10-20T00:31:19.369Z,90.06
2022-10-20T00:33:46.730Z,90.19
2022-10-20T00:36:15.744Z,90.23
2022-10-20T00:38:42.875Z,90.61
2022-10-20T00:41:13.091Z,90.54
2022-10-20T00:43:49.370Z,90.38
2022-10-20T00:46:20.171Z,90.49
2022-10-20T00:48:54.323Z,90.31
2022-10-20T00:51:26.377Z,90.50
2022-10-20T00:53:59.380Z,90.48
2022-10-20T00:56:25.802Z,90.61
2022-10-20T00:58:52.736Z,90.63
2022-10-20T01:01:19.194Z,90.64
2022-10-20T01:03:49.085Z,90.86
2022-10-20T01:08:44.314Z,90.72
2022-10-20T01:11:23.618Z,90.89
2022-10-20T01:14:21.796Z,90.76
2022-10-20T01:16:58.496Z,90.88
2022-10-20T01:19:47.810Z,90.74
2022-10-20T01:22:30.084Z,90.97
2022-10-20T01:25:15.072Z,90.99
2022-10-20T01:27:45.948Z,91.15
2022-10-20T01:30:22.919Z,91.14
2022-10-20T01:33:21.389Z,91.10
2022-10-20T01:35:50.714Z,91.17
2022-10-20T01:38:46.987Z,90.91
2022-10-20T01:41:37.297Z,90.73
2022-10-20T01:44:08.020Z,91.12
2022-10-20T01:46:36.318Z,91.06
2022-10-20T01:49:04.222Z,91.04
2022-10-20T01:51:32.006Z,91.02
2022-10-20T01:53:58.513Z,90.97
2022-10-20T01:56:49.100Z,90.97
2022-10-20T01:59:34.495Z,91.04
2022-10-20T02:02:32.167Z,90.93
2022-10-20T02:05:14.424Z,91.26
2022-10-20T02:07:42.158Z,91.28
2022-10-20T02:10:28.938Z,91.26
2022-10-20T02:12:59.878Z,91.26
2022-10-20T02:15:29.456Z,91.26
2022-10-20T02:18:02.587Z,91.43
2022-10-20T02:20:30.663Z,91.66
2022-10-20T02:22:59.655Z,91.62
2022-10-20T02:25:28.909Z,91.33
2022-10-20T02:27:57.816Z,91.50
2022-10-20T02:30:24.410Z,91.58
2022-10-20T02:32:52.110Z,91.72
2022-10-20T02:35:26.239Z,91.55
2022-10-20T02:37:52.532Z,91.60
2022-10-20T02:40:18.971Z,91.45
2022-10-20T02:42:46.157Z,91.45
2022-10-20T02:45:12.562Z,91.52
2022-10-20T02:47:39.254Z,91.42
2022-10-20T02:50:07.205Z,91.73
2022-10-20T02:52:33.597Z,91.68
2022-10-20T02:54:59.925Z,91.55
2022-10-20T02:57:26.385Z,91.30
2022-10-20T02:59:52.690Z,91.33
2022-10-20T03:02:18.970Z,91.53
2022-10-20T03:04:45.276Z,91.43
2022-10-20T03:07:11.651Z,91.57
2022-10-20T03:09:38.015Z,91.59
2022-10-20T03:12:04.735Z,91.53
2022-10-20T03:14:31.191Z,91.64
2022-10-20T03:16:57.539Z,91.31
2022-10-20T03:19:23.863Z,91.22
2022-10-20T03:21:50.170Z,91.66
2022-10-20T03:24:16.596Z,91.55
2022-10-20T03:26:42.923Z,91.72
2022-10-20T03:29:09.226Z,91.45
2022-10-20T03:31:35.583Z,91.64
2022-10-20T03:34:02.018Z,91.64
2022-10-20T03:36:28.343Z,91.61
2022-10-20T03:38:54.592Z,91.63
2022-10-20T03:41:20.916Z,91.51
2022-10-20T03:43:47.226Z,91.57
2022-10-20T03:46:13.564Z,91.88
2022-10-20T03:48:40.699Z,91.65
2022-10-20T03:51:08.851Z,91.81
2022-10-20T03:53:35.173Z,91.79
2022-10-20T03:56:10.308Z,91.78
2022-10-20T03:58:36.624Z,91.74
2022-10-20T04:01:05.640Z,91.63
2022-10-20T04:03:32.401Z,91.82
2022-10-20T04:05:58.731Z,91.74
2022-10-20T04:08:25.162Z,91.76
2022-10-20T04:10:51.849Z,91.70
2022-10-20T04:13:18.173Z,91.92
2022-10-20T04:15:44.447Z,91.60
2022-10-20T04:18:10.715Z,91.55
2022-10-20T04:20:39.333Z,91.66
2022-10-20T04:23:08.545Z,91.45
2022-10-20T04:25:34.888Z,91.90
2022-10-20T04:28:01.139Z,91.76
2022-10-20T04:30:27.433Z,91.85
2022-10-20T04:32:53.773Z,92.02
2022-10-20T04:35:20.067Z,91.87
2022-10-20T04:37:46.344Z,91.94
2022-10-20T04:40:12.648Z,92.04
2022-10-20T04:42:38.973Z,91.94
2022-10-20T04:45:05.789Z,91.99
2022-10-20T04:47:32.992Z,91.88
2022-10-20T04:49:59.488Z,91.67
2022-10-20T04:52:28.097Z,91.78
2022-10-20T04:54:54.572Z,91.90
2022-10-20T04:57:21.155Z,92.07
2022-10-20T04:59:47.422Z,91.88
2022-10-20T05:02:13.802Z,92.15
2022-10-20T05:04:40.154Z,92.03
2022-10-20T05:07:07.301Z,92.17
2022-10-20T05:09:33.889Z,92.05
2022-10-20T05:12:00.437Z,92.13
2022-10-20T05:14:26.966Z,92.33
2022-10-20T05:16:54.526Z,91.98
2022-10-20T05:19:20.959Z,91.99
2022-10-20T05:21:47.303Z,91.84
2022-10-20T05:24:19.859Z,91.75
2022-10-20T05:26:47.928Z,91.53
2022-10-20T05:29:14.309Z,91.44
2022-10-20T05:31:42.687Z,91.28
2022-10-20T05:34:10.569Z,91.67
2022-10-20T05:36:37.298Z,91.58
2022-10-20T05:39:04.246Z,91.78
2022-10-20T05:41:36.281Z,91.66
2022-10-20T05:44:13.649Z,91.65
2022-10-20T05:46:49.284Z,91.94
2022-10-20T05:49:16.821Z,91.94
2022-10-20T05:51:44.661Z,92.09
2022-10-20T05:54:12.569Z,91.98
2022-10-20T05:56:39.780Z,92.08
2022-10-20T05:59:11.660Z,92.13
2022-10-20T06:01:54.692Z,91.87
2022-10-20T06:04:22.954Z,92.38
2022-10-20T06:06:50.501Z,92.15
2022-10-20T06:09:17.877Z,92.34
2022-10-20T06:11:44.337Z,92.59
2022-10-20T06:14:11.154Z,92.47
2022-10-20T06:16:38.061Z,92.24
2022-10-20T06:19:06.158Z,92.41
2022-10-20T06:21:34.473Z,92.48
2022-10-20T06:24:04.017Z,92.60
2022-10-20T06:26:32.874Z,92.40
2022-10-20T06:29:04.405Z,92.31
2022-10-20T06:31:34.398Z,92.09
2022-10-20T06:34:01.016Z,92.25
2022-10-20T06:36:27.681Z,92.50
2022-10-20T06:38:56.061Z,92.27
2022-10-20T06:41:23.742Z,92.19
2022-10-20T06:43:54.452Z,92.43
2022-10-20T06:46:20.843Z,92.34
2022-10-20T06:48:47.192Z,92.48
2022-10-20T06:51:16.184Z,92.54
2022-10-20T06:53:45.861Z,92.42
2022-10-20T06:56:15.860Z,92.50
2022-10-20T06:58:45.130Z,92.52
2022-10-20T07:01:14.222Z,92.65
2022-10-20T07:03:41.767Z,92.84
2022-10-20T07:06:09.650Z,92.65
2022-10-20T07:08:36.322Z,92.71
2022-10-20T07:11:19.966Z,92.69
2022-10-20T07:13:48.504Z,92.91
2022-10-20T07:16:18.898Z,92.79
2022-10-20T07:18:46.179Z,92.73
2022-10-20T07:21:15.202Z,92.76
2022-10-20T07:23:41.805Z,92.92
2022-10-20T07:26:14.804Z,92.70
2022-10-20T07:28:44.499Z,92.48
2022-10-20T07:31:19.796Z,92.44
2022-10-20T07:34:00.928Z,92.68
2022-10-20T07:36:36.051Z,92.88
2022-10-20T07:39:04.881Z,92.72
2022-10-20T07:41:31.989Z,92.98
2022-10-20T07:43:58.731Z,92.84
2022-10-20T07:46:25.400Z,93.11
2022-10-20T07:48:51.812Z,93.03
2022-10-20T07:51:21.363Z,92.75
2022-10-20T07:53:48.660Z,93.22
2022-10-20T07:56:15.693Z,93.25
2022-10-20T07:58:42.459Z,93.39
2022-10-20T08:01:09.596Z,93.15
2022-10-20T08:03:36.316Z,93.07
2022-10-20T08:06:03.589Z,93.14
2022-10-20T08:08:30.312Z,93.07
2022-10-20T08:10:57.725Z,93.05
2022-10-20T08:13:25.349Z,93.12
2022-10-20T08:15:53.034Z,93.19
2022-10-20T08:18:20.189Z,92.81
2022-10-20T08:20:47.923Z,92.76
2022-10-20T08:23:16.051Z,92.76
2022-10-20T08:25:42.955Z,92.66
2022-10-20T08:28:09.689Z,92.65
2022-10-20T08:30:36.260Z,92.48
2022-10-20T08:33:03.191Z,92.45
2022-10-20T08:35:30.636Z,92.26
2022-10-20T08:37:56.959Z,92.03
2022-10-20T08:40:27.487Z,92.59
2022-10-20T08:42:55.007Z,92.51
2022-10-20T08:45:24.423Z,92.36
2022-10-20T08:47:56.909Z,92.48
2022-10-20T08:50:27.738Z,92.38
2022-10-20T08:52:57.317Z,92.30
2022-10-20T08:55:28.555Z,92.21
2022-10-20T08:58:05.900Z,92.20
2022-10-20T09:00:35.817Z,91.90
2022-10-20T09:03:11.372Z,91.78
2022-10-20T09:05:42.286Z,91.98
2022-10-20T09:08:08.947Z,90.96
2022-10-20T09:10:48.050Z,90.30
2022-10-20T09:13:20.417Z,90.66
2022-10-20T09:15:53.176Z,89.43
2022-10-20T09:18:20.115Z,89.87
2022-10-20T09:20:55.548Z,90.72
2022-10-20T09:23:42.155Z,90.17
2022-10-20T09:26:30.361Z,89.99
2022-10-20T09:29:15.339Z,90.14
2022-10-20T09:31:45.277Z,89.61
2022-10-20T09:34:31.977Z,89.92
2022-10-20T09:37:11.279Z,90.05
2022-10-20T09:39:58.649Z,89.94
2022-10-20T09:42:30.878Z,88.77
2022-10-20T09:45:01.692Z,89.36
2022-10-20T09:47:28.811Z,89.37
2022-10-20T09:50:04.786Z,88.99
2022-10-20T09:52:43.720Z,88.79
2022-10-20T09:55:42.117Z,88.48
2022-10-20T09:58:32.401Z,89.37
2022-10-20T10:01:16.864Z,87.60
2022-10-20T10:03:57.831Z,87.88
2022-10-20T10:06:42.301Z,88.06
2022-10-20T10:09:41.745Z,87.00
2022-10-20T10:12:10.991Z,87.64
2022-10-20T10:14:47.843Z,87.69
2022-10-20T10:17:38.418Z,86.77
2022-10-20T10:20:12.903Z,86.31
2022-10-20T10:22:40.425Z,86.20
2022-10-20T10:25:29.588Z,86.16
2022-10-20T10:27:59.736Z,86.03
2022-10-20T10:30:31.006Z,86.11
2022-10-20T10:32:57.665Z,85.66
2022-10-20T10:35:29.352Z,85.93
2022-10-20T10:38:03.889Z,85.15
2022-10-20T10:40:56.326Z,85.16
2022-10-20T10:43:54.612Z,85.13
2022-10-20T10:46:27.659Z,84.15
2022-10-20T10:49:12.975Z,84.24
2022-10-20T10:51:55.210Z,83.78
2022-10-20T10:54:40.569Z,83.67
2022-10-20T10:57:24.301Z,83.86
2022-10-20T10:59:52.686Z,84.90
2022-10-20T11:02:55.344Z,83.33
2022-10-20T11:05:22.026Z,82.32
2022-10-20T11:07:56.974Z,81.49
2022-10-20T11:10:43.543Z,81.37
2022-10-20T11:13:24.483Z,80.60
2022-10-20T11:16:12.298Z,80.48
2022-10-20T11:19:01.811Z,79.88
2022-10-20T11:21:48.370Z,79.62
2022-10-20T11:24:38.990Z,79.49
2022-10-20T11:27:28.816Z,80.13
2022-10-20T11:30:21.416Z,78.89
2022-10-20T11:33:12.096Z,78.45
2022-10-20T11:35:41.365Z,78.28
2022-10-20T11:38:24.335Z,78.77
2022-10-20T11:41:18.309Z,78.60
2022-10-20T11:44:03.546Z,78.15
2022-10-20T11:46:40.351Z,78.49
2022-10-20T11:49:11.688Z,77.82
2022-10-20T11:52:14.152Z,77.95
2022-10-20T11:54:59.149Z,76.63
2022-10-20T11:58:01.120Z,77.31
2022-10-20T12:00:40.917Z,76.85
2022-10-20T12:03:39.369Z,76.53
2022-10-20T12:06:29.208Z,76.01
2022-10-20T12:09:11.825Z,75.85
2022-10-20T12:11:47.102Z,75.85
2022-10-20T12:14:13.365Z,74.02
2022-10-20T12:16:58.451Z,74.65
2022-10-20T12:19:26.471Z,74.39
2022-10-20T12:22:04.421Z,74.34
2022-10-20T12:24:34.801Z,74.09
2022-10-20T12:27:20.996Z,73.88
2022-10-20T12:29:57.768Z,73.89
2022-10-20T12:32:36.389Z,73.82
2022-10-20T12:35:23.452Z,73.11
2022-10-20T12:43:00.207Z,72.64
2022-10-20T12:45:43.682Z,72.45
2022-10-20T12:48:21.036Z,71.28
2022-10-20T12:50:50.676Z,71.42
2022-10-20T12:53:16.944Z,72.21
2022-10-20T12:56:04.110Z,72.33
2022-10-20T12:58:33.791Z,71.78
2022-10-20T13:01:01.901Z,72.27
2022-10-20T13:03:30.990Z,72.25
2022-10-20T13:05:59.030Z,70.54
2022-10-20T13:08:34.543Z,71.26
2022-10-20T13:11:32.787Z,71.25
2022-10-20T13:14:25.514Z,70.38
2022-10-20T13:17:08.730Z,70.13
2022-10-20T13:20:01.395Z,70.78
2022-10-20T13:22:32.872Z,70.10
2022-10-20T13:25:02.368Z,70.47
2022-10-20T13:27:29.012Z,69.86
2022-10-20T13:29:55.479Z,69.50
2022-10-20T13:32:26.727Z,69.24
2022-10-20T13:34:57.527Z,68.60
2022-10-20T13:37:32.260Z,68.86
2022-10-20T13:40:33.091Z,68.64
2022-10-20T13:43:34.053Z,68.16
2022-10-20T13:46:21.249Z,68.06
2022-10-20T13:48:58.307Z,67.56
2022-10-20T13:51:28.261Z,68.83
2022-10-20T13:54:01.117Z,68.79
2022-10-20T13:56:46.533Z,68.92
2022-10-20T13:59:12.878Z,68.93
2022-10-20T14:01:39.572Z,68.96
2022-10-20T14:04:19.024Z,69.06
2022-10-20T14:06:46.538Z,68.94
2022-10-20T14:09:19.193Z,69.24
2022-10-20T14:11:52.325Z,69.20
2022-10-20T14:14:24.489Z,69.36
2022-10-20T14:16:55.361Z,69.34
2022-10-20T14:19:27.215Z,69.48
2022-10-20T14:22:10.521Z,69.45
2022-10-20T14:24:41.811Z,69.53
2022-10-20T14:27:19.017Z,69.71
2022-10-20T14:29:47.144Z,69.67
2022-10-20T14:32:20.202Z,69.81
2022-10-20T14:35:17.909Z,69.69
2022-10-20T14:37:50.777Z,69.80
2022-10-20T14:40:20.862Z,69.64
2022-10-20T14:42:47.937Z,69.75
2022-10-20T14:45:22.722Z,70.00
2022-10-20T14:47:50.649Z,69.81
2022-10-20T14:50:36.693Z,69.84
2022-10-20T14:53:18.109Z,70.10
2022-10-20T14:55:44.776Z,70.22
2022-10-20T14:58:29.859Z,70.14
2022-10-20T15:01:18.787Z,70.03
2022-10-20T15:03:45.367Z,69.98
2022-10-20T15:06:17.890Z,69.99
2022-10-20T15:09:01.000Z,70.17
2022-10-20T15:11:30.939Z,70.15
2022-10-20T15:13:59.518Z,69.98
2022-10-20T15:16:32.179Z,69.94
2022-10-20T15:19:33.784Z,69.86
2022-10-20T15:22:08.677Z,69.87
2022-10-20T15:24:35.948Z,69.97
2022-10-20T15:27:02.921Z,69.80
2022-10-20T15:29:30.355Z,69.94
2022-10-20T15:31:57.451Z,69.86
2022-10-20T15:34:24.850Z,69.90
2022-10-20T15:36:51.321Z,69.75
2022-10-20T15:39:17.709Z,69.79
2022-10-20T15:41:44.064Z,69.76
2022-10-20T15:44:16.106Z,69.91
2022-10-20T15:46:44.287Z,69.81
2022-10-20T15:49:11.384Z,70.00
2022-10-20T15:51:41.062Z,70.26
2022-10-20T15:54:11.952Z,70.29
2022-10-20T15:56:38.297Z,70.48
2022-10-20T16:01:32.148Z,70.16
2022-10-20T16:04:01.833Z,69.94
2022-10-20T16:06:28.148Z,70.26
2022-10-20T16:08:54.559Z,70.58
2022-10-20T16:11:21.138Z,70.86
2022-10-20T16:13:48.057Z,70.99
2022-10-20T16:16:18.563Z,70.87
2022-10-20T16:18:45.862Z,71.19
2022-10-20T16:21:12.631Z,71.17
2022-10-20T16:23:42.315Z,71.30
2022-10-20T16:26:12.916Z,71.41
2022-10-20T16:28:39.716Z,71.11
2022-10-20T16:31:08.886Z,71.16
2022-10-20T16:33:35.911Z,71.47
2022-10-20T16:36:05.284Z,71.57
2022-10-20T16:38:36.147Z,71.71
2022-10-20T16:41:09.446Z,71.76
2022-10-20T16:43:40.172Z,71.73
2022-10-20T16:46:07.991Z,71.84
2022-10-20T16:48:37.024Z,71.91
2022-10-20T16:51:06.399Z,71.71
2022-10-20T16:53:33.379Z,71.81
2022-10-20T16:56:00.027Z,71.69
2022-10-20T16:58:26.925Z,71.71
2022-10-20T17:00:59.097Z,71.79
2022-10-20T17:03:25.533Z,71.87
2022-10-20T17:05:58.106Z,71.80
2022-10-20T17:08:25.490Z,71.92
2022-10-20T17:11:00.303Z,71.89
2022-10-20T17:13:28.693Z,71.88
2022-10-20T17:15:56.260Z,72.03
2022-10-20T17:18:23.337Z,71.94
2022-10-20T17:20:54.296Z,72.02
2022-10-20T17:23:23.843Z,72.05
2022-10-20T17:25:51.840Z,72.19
2022-10-20T17:28:19.068Z,72.31
2022-10-20T17:30:47.161Z,72.58
2022-10-20T17:33:13.989Z,72.56
2022-10-20T17:35:44.113Z,72.55
2022-10-20T17:38:10.475Z,72.56
2022-10-20T17:40:37.915Z,72.38
2022-10-20T17:43:04.529Z,72.34
2022-10-20T17:45:33.867Z,72.54
2022-10-20T17:48:03.094Z,72.46
2022-10-20T17:50:30.457Z,72.62
2022-10-20T17:53:00.080Z,72.72
2022-10-20T17:55:27.249Z,72.78
2022-10-20T17:57:53.772Z,72.90
2022-10-20T18:00:31.760Z,72.85
2022-10-20T18:03:07.557Z,72.97
2022-10-20T18:05:37.000Z,73.12
2022-10-20T18:08:03.348Z,73.08
2022-10-20T18:10:29.616Z,73.17
2022-10-20T18:12:55.962Z,73.20
2022-10-20T18:15:22.318Z,73.35
2022-10-20T18:17:48.628Z,73.42
2022-10-20T18:20:14.930Z,73.58
2022-10-20T18:22:41.192Z,73.67
2022-10-20T18:25:07.833Z,73.60
2022-10-20T18:27:34.116Z,73.23
2022-10-20T18:30:00.388Z,73.42
2022-10-20T18:32:26.696Z,73.57
2022-10-20T18:34:53.094Z,73.48
2022-10-20T18:37:19.429Z,73.49
2022-10-20T18:39:46.623Z,73.60
2022-10-20T18:42:12.964Z,73.60
2022-10-20T18:44:39.402Z,73.68
2022-10-20T18:47:05.765Z,73.73
2022-10-20T18:49:32.176Z,73.77
2022-10-20T18:51:58.829Z,73.77
2022-10-20T18:54:25.295Z,73.85
2022-10-20T18:56:51.812Z,73.74
2022-10-20T18:59:18.762Z,73.96
2022-10-20T19:01:45.212Z,73.98
2022-10-20T19:04:11.806Z,73.93
2022-10-20T19:06:43.653Z,74.05
2022-10-20T19:09:13.653Z,74.05
2022-10-20T19:11:41.218Z,74.19
2022-10-20T19:14:09.138Z,74.29
2022-10-20T19:16:35.643Z,74.26
2022-10-20T19:19:04.562Z,74.43
2022-10-20T19:21:32.057Z,74.45
2022-10-20T19:24:03.693Z,74.56
2022-10-20T19:26:37.303Z,74.57
2022-10-20T19:29:05.958Z,74.54
2022-10-20T19:31:45.733Z,74.76
2022-10-20T19:34:20.214Z,74.88
2022-10-20T19:36:47.353Z,75.01
2022-10-20T19:39:20.418Z,75.11
2022-10-20T19:41:47.278Z,74.91
2022-10-20T19:44:16.587Z,75.08
2022-10-20T19:46:45.373Z,74.96
2022-10-20T19:49:12.770Z,75.12
2022-10-20T19:51:39.658Z,75.18
2022-10-20T19:54:06.909Z,75.26
2022-10-20T19:56:34.009Z,75.49
2022-10-20T19:59:02.465Z,75.39
2022-10-20T20:01:28.873Z,75.42
2022-10-20T20:03:55.440Z,75.50
2022-10-20T20:06:21.977Z,75.68
2022-10-20T20:08:52.943Z,75.62
2022-10-20T20:11:23.038Z,75.71
2022-10-20T20:13:54.908Z,75.48
2022-10-20T20:16:22.211Z,75.76
2022-10-20T20:18:48.930Z,75.58
2022-10-20T20:21:16.995Z,75.70
2022-10-20T20:24:00.136Z,75.74
2022-10-20T20:26:29.189Z,75.85
2022-10-20T20:28:56.528Z,75.96
2022-10-20T20:31:24.048Z,75.91
2022-10-20T20:33:51.861Z,76.12
2022-10-20T20:36:18.638Z,76.02
2022-10-20T20:38:45.111Z,76.19
2022-10-20T20:41:13.826Z,76.15
2022-10-20T20:43:40.188Z,76.13
2022-10-20T20:46:15.255Z,76.25
2022-10-20T20:48:42.142Z,76.27
2022-10-20T20:51:09.306Z,76.21
2022-10-20T20:53:36.626Z,76.18
2022-10-20T20:56:06.368Z,76.21
2022-10-20T20:58:32.842Z,76.30
2022-10-20T21:01:05.510Z,76.27
2022-10-20T21:03:33.323Z,76.28
2022-10-20T21:06:04.017Z,76.16
2022-10-20T21:08:32.396Z,76.15
2022-10-20T21:11:24.534Z,76.10
2022-10-20T21:13:52.713Z,76.36
2022-10-20T21:16:20.518Z,76.10
2022-10-20T21:18:49.053Z,76.35
2022-10-20T21:21:21.636Z,76.60
2022-10-20T21:23:48.601Z,76.71
2022-10-20T21:26:16.990Z,76.60
2022-10-20T21:28:44.376Z,76.66
2022-10-20T21:31:17.242Z,76.66
2022-10-20T21:33:45.007Z,76.78
2022-10-20T21:36:13.933Z,76.77
2022-10-20T21:38:41.234Z,77.04
2022-10-20T21:41:10.232Z,77.12
2022-10-20T21:43:38.223Z,77.33
2022-10-20T21:46:17.132Z,77.09
2022-10-20T21:48:45.714Z,77.31
2022-10-20T21:51:15.336Z,77.17
2022-10-20T21:53:41.898Z,77.21
2022-10-20T21:56:09.236Z,77.11
2022-10-20T21:58:37.083Z,77.23
2022-10-20T22:01:17.077Z,77.32
2022-10-20T22:03:44.793Z,77.40
2022-10-20T22:06:13.686Z,77.36
2022-10-20T22:08:42.625Z,77.46
2022-10-20T22:11:15.948Z,77.39
2022-10-20T22:13:43.094Z,77.46
2022-10-20T22:16:12.908Z,77.56
2022-10-20T22:18:39.302Z,77.51
2022-10-20T22:21:11.178Z,77.87
2022-10-20T22:23:40.738Z,77.90
2022-10-20T22:26:07.657Z,78.04
2022-10-20T22:28:34.504Z,77.94
2022-10-20T22:33:27.106Z,77.97
2022-10-20T22:35:53.457Z,78.08
2022-10-20T22:38:20.022Z,77.84
2022-10-20T22:40:46.369Z,78.01
2022-10-20T22:43:13.012Z,78.15
2022-10-20T22:45:39.343Z,78.04
2022-10-20T22:48:05.872Z,78.00
2022-10-20T22:50:32.241Z,77.92
2022-10-20T22:52:58.604Z,78.13
2022-10-20T22:55:24.934Z,78.05
2022-10-20T22:57:52.041Z,78.14
2022-10-20T23:00:19.431Z,78.20
2022-10-20T23:02:45.766Z,77.96
2022-10-20T23:05:12.201Z,78.12
2022-10-20T23:07:39.059Z,78.03
2022-10-20T23:10:06.416Z,78.42
2022-10-20T23:12:33.356Z,78.13
2022-10-20T23:15:00.019Z,78.07
2022-10-20T23:17:28.123Z,78.39
2022-10-20T23:19:55.154Z,78.38
2022-10-20T23:22:21.846Z,78.57
2022-10-20T23:24:48.105Z,78.82
2022-10-20T23:27:14.426Z,78.76
2022-10-20T23:29:40.743Z,78.63
2022-10-20T23:32:07.502Z,78.58
2022-10-20T23:37:00.043Z,78.82
2022-10-20T23:39:26.359Z,78.85
2022-10-20T23:41:52.676Z,79.23
2022-10-20T23:44:18.935Z,79.06
2022-10-20T23:46:45.201Z,79.00
2022-10-20T23:49:11.600Z,78.82
2022-10-20T23:51:37.883Z,79.11
2022-10-20T23:54:04.182Z,78.96
2022-10-20T23:56:30.511Z,79.11
2022-10-20T23:58:56.819Z,79.27
